LFBU/ANG METAR and TAF weather

Enter ICAO airport designator
Station Type Date Time Source
LFBU METAR 2022/06/28 10:00 UTC NOAA

LFBU 281000Z AUTO /////KT //// R28///// // ////// 20/09 Q1021


Station Type Date Time Source
LFBU Decoded METAR 2022/06/28 10:00 UTC NOAA

Station name not available
Jun 28, 2022 - 06:00 AM EDT / 2022.06.28 1000 UTC
Temperature: 68 F (20 C)
Dew Point: 48 F (9 C)
Relative Humidity: 49%
Pressure (altimeter): 30.15 in. Hg (1021 hPa)
ob: LFBU 281000Z AUTO /////KT //// R28///// // ////// 20/09 Q1021
cycle: 10

Station Type Date Time Source
LFBU TAF 2022/06/28 06:00 UTC NOAA

TAF LFBU 280500Z 2806/2906 32005KT CAVOK
TEMPO 2806/2807 1200 MIFG

Example: see airport list